createdAt,value
2022-12-25T00:02:10.424Z,0.82
2022-12-25T00:07:14.966Z,0.77
2022-12-25T00:12:19.814Z,0.80
2022-12-25T00:17:23.839Z,0.84
2022-12-25T00:22:27.791Z,0.94
2022-12-25T00:27:34.393Z,1.03
2022-12-25T00:32:38.412Z,1.11
2022-12-25T00:37:42.117Z,1.09
2022-12-25T00:42:45.845Z,0.99
2022-12-25T00:47:49.454Z,0.86
2022-12-25T00:52:53.071Z,0.85
2022-12-25T00:57:56.802Z,1.00
2022-12-25T01:03:00.559Z,1.11
2022-12-25T01:08:05.499Z,1.17
2022-12-25T01:13:09.099Z,1.26
2022-12-25T01:18:13.048Z,1.32
2022-12-25T01:23:17.769Z,1.31
2022-12-25T01:28:21.374Z,1.29
2022-12-25T01:33:25.214Z,1.23
2022-12-25T01:38:29.033Z,1.26
2022-12-25T01:43:34.640Z,1.31
2022-12-25T01:48:40.067Z,1.28
2022-12-25T01:53:43.780Z,1.19
2022-12-25T01:58:48.198Z,1.14
2022-12-25T02:04:03.107Z,1.06
2022-12-25T02:09:07.043Z,1.08
2022-12-25T02:14:11.265Z,1.19
2022-12-25T02:20:13.670Z,1.25
2022-12-25T02:25:58.656Z,1.37
2022-12-25T02:31:16.547Z,1.44
2022-12-25T02:36:27.268Z,1.37
2022-12-25T02:41:37.790Z,1.30
2022-12-25T02:47:03.217Z,1.27
2022-12-25T02:52:40.628Z,1.15
2022-12-25T02:58:08.961Z,1.07
2022-12-25T03:03:35.489Z,1.14
2022-12-25T03:08:45.412Z,1.24
2022-12-25T03:14:17.248Z,1.29
2022-12-25T03:19:46.046Z,1.32
2022-12-25T03:25:09.530Z,1.35
2022-12-25T03:30:39.764Z,1.39
2022-12-25T03:36:05.833Z,1.40
2022-12-25T03:41:52.559Z,1.43
2022-12-25T03:47:35.430Z,1.41
2022-12-25T03:53:00.318Z,1.28
2022-12-25T03:58:22.980Z,1.24
2022-12-25T04:03:45.716Z,1.26
2022-12-25T04:09:08.309Z,1.34
2022-12-25T04:14:38.656Z,1.24
2022-12-25T04:20:01.390Z,1.16
2022-12-25T04:25:24.712Z,1.12
2022-12-25T04:30:47.014Z,1.24
2022-12-25T04:36:09.439Z,1.45
2022-12-25T04:41:14.686Z,1.52
2022-12-25T04:46:18.343Z,1.46
2022-12-25T04:51:25.822Z,1.44
2022-12-25T04:56:29.640Z,1.40
2022-12-25T05:01:34.067Z,1.45
2022-12-25T05:06:37.982Z,1.54
2022-12-25T05:11:41.569Z,1.60
2022-12-25T05:16:45.353Z,1.56
2022-12-25T05:21:49.102Z,1.54
2022-12-25T05:26:52.897Z,1.59
2022-12-25T05:31:57.645Z,1.63
2022-12-25T05:37:01.121Z,1.64
2022-12-25T05:42:04.899Z,1.64
2022-12-25T05:47:08.446Z,1.62
2022-12-25T05:52:12.629Z,1.66
2022-12-25T05:57:16.224Z,1.73
2022-12-25T06:02:20.101Z,1.70
2022-12-25T06:07:23.883Z,1.57
2022-12-25T06:12:27.534Z,1.50
2022-12-25T06:17:34.056Z,1.47
2022-12-25T06:22:38.556Z,1.50
2022-12-25T06:27:45.048Z,1.50
2022-12-25T06:32:49.793Z,1.39
2022-12-25T06:37:54.479Z,1.27
2022-12-25T06:42:58.062Z,1.24
2022-12-25T06:48:04.258Z,1.31
2022-12-25T06:53:09.702Z,1.44
2022-12-25T06:58:14.955Z,1.55
2022-12-25T07:03:22.681Z,1.54
2022-12-25T07:08:26.264Z,1.49
2022-12-25T07:13:30.322Z,1.56
2022-12-25T07:18:36.101Z,1.71
2022-12-25T07:23:40.432Z,1.73
2022-12-25T07:28:44.390Z,1.68
2022-12-25T07:33:48.598Z,1.69
2022-12-25T07:38:52.319Z,1.69
2022-12-25T07:43:56.325Z,1.73
2022-12-25T07:49:00.328Z,1.71
2022-12-25T07:54:04.846Z,1.74
2022-12-25T07:59:09.154Z,1.76
2022-12-25T08:04:13.284Z,1.85
2022-12-25T08:09:17.121Z,2.06
2022-12-25T08:14:21.047Z,2.16
2022-12-25T08:19:24.988Z,2.19
2022-12-25T08:24:28.910Z,2.22
2022-12-25T08:29:34.007Z,2.25
2022-12-25T08:34:40.757Z,2.25
2022-12-25T08:39:44.678Z,2.24
2022-12-25T08:44:48.817Z,2.33
2022-12-25T08:49:54.977Z,2.42
2022-12-25T08:54:59.329Z,2.57
2022-12-25T09:00:08.566Z,2.74
2022-12-25T09:05:14.359Z,2.85
2022-12-25T09:10:23.165Z,2.92
2022-12-25T09:15:30.267Z,3.02
2022-12-25T09:20:39.027Z,3.08
2022-12-25T09:25:46.960Z,3.03
2022-12-25T09:30:53.857Z,3.11
2022-12-25T09:36:02.410Z,3.20
2022-12-25T09:41:58.327Z,3.32
2022-12-25T09:47:13.827Z,3.42
2022-12-25T09:52:55.457Z,3.46
2022-12-25T09:58:08.922Z,3.66
2022-12-25T10:04:02.418Z,3.76
2022-12-25T10:09:24.649Z,3.70
2022-12-25T10:14:59.812Z,3.44
2022-12-25T10:20:53.498Z,3.31
2022-12-25T10:26:16.622Z,3.39
2022-12-25T10:31:34.353Z,3.39
2022-12-25T10:36:38.765Z,3.32
2022-12-25T10:42:23.670Z,3.27
2022-12-25T10:47:33.433Z,3.21
2022-12-25T10:57:58.216Z,3.09
2022-12-25T11:03:02.296Z,3.07
2022-12-25T11:08:23.645Z,3.05
2022-12-25T11:13:30.931Z,3.13
2022-12-25T11:18:54.239Z,3.13
2022-12-25T11:24:02.634Z,3.11
2022-12-25T11:29:26.245Z,3.11
2022-12-25T11:34:49.423Z,3.13
2022-12-25T11:39:53.168Z,3.15
2022-12-25T11:45:24.524Z,3.08
2022-12-25T11:50:36.760Z,3.02
2022-12-25T11:55:57.432Z,3.07
2022-12-25T12:01:27.948Z,3.22
2022-12-25T12:07:01.539Z,3.36
2022-12-25T12:12:15.932Z,3.37
2022-12-25T12:17:20.803Z,3.19
2022-12-25T12:22:28.677Z,3.09
2022-12-25T12:27:39.727Z,3.11
2022-12-25T12:32:54.282Z,3.16
2022-12-25T12:38:04.715Z,3.17
2022-12-25T12:43:23.294Z,3.21
2022-12-25T12:48:30.651Z,3.21
2022-12-25T12:53:35.609Z,3.15
2022-12-25T12:58:46.630Z,3.14
2022-12-25T13:04:09.037Z,3.25
2022-12-25T13:09:36.086Z,3.28
2022-12-25T13:14:48.516Z,3.31
2022-12-25T13:20:02.806Z,3.39
2022-12-25T13:25:20.148Z,3.45
2022-12-25T13:30:25.990Z,3.46
2022-12-25T13:35:30.439Z,3.44
2022-12-25T13:40:35.103Z,3.46
2022-12-25T13:45:39.039Z,3.50
2022-12-25T13:50:48.976Z,3.52
2022-12-25T13:55:56.293Z,3.58
2022-12-25T14:01:03.065Z,3.67
2022-12-25T14:06:31.186Z,3.66
2022-12-25T14:11:36.835Z,3.60
2022-12-25T14:16:45.055Z,3.53
2022-12-25T14:22:12.624Z,3.53
2022-12-25T14:27:30.930Z,3.56
2022-12-25T14:32:44.303Z,3.61
2022-12-25T14:37:56.795Z,3.56
2022-12-25T14:43:03.835Z,3.48
2022-12-25T14:48:25.486Z,3.44
2022-12-25T14:53:46.874Z,3.33
2022-12-25T14:59:00.520Z,3.29
2022-12-25T15:04:11.591Z,3.31
2022-12-25T15:09:19.439Z,3.28
2022-12-25T15:14:25.586Z,3.32
2022-12-25T15:19:38.999Z,3.33
2022-12-25T15:24:43.102Z,3.22
2022-12-25T15:35:21.876Z,3.13
2022-12-25T15:40:25.646Z,3.10
2022-12-25T15:45:31.500Z,3.11
2022-12-25T15:50:37.096Z,3.12
2022-12-25T15:55:41.612Z,3.09
2022-12-25T16:00:45.407Z,3.01
2022-12-25T16:05:51.097Z,2.96
2022-12-25T16:10:55.321Z,3.02
2022-12-25T16:15:59.473Z,3.08
2022-12-25T16:21:03.625Z,3.11
2022-12-25T16:26:07.709Z,3.05
2022-12-25T16:31:12.720Z,3.01
2022-12-25T16:36:19.494Z,2.98
2022-12-25T16:41:27.588Z,2.91
2022-12-25T16:46:32.063Z,2.92
2022-12-25T16:51:36.243Z,3.02
2022-12-25T16:56:40.904Z,3.02
2022-12-25T17:01:45.653Z,3.01
2022-12-25T17:06:49.934Z,3.03
2022-12-25T17:11:53.806Z,2.97
2022-12-25T17:16:58.147Z,2.92
2022-12-25T17:22:02.460Z,2.90
2022-12-25T17:27:09.035Z,2.88
2022-12-25T17:32:13.125Z,2.87
2022-12-25T17:37:17.654Z,2.86
2022-12-25T17:42:21.563Z,2.87
2022-12-25T17:47:26.601Z,2.87
2022-12-25T17:52:33.337Z,2.91
2022-12-25T17:57:41.037Z,2.93
2022-12-25T18:02:47.670Z,2.95
2022-12-25T18:07:52.691Z,2.99
2022-12-25T18:12:57.321Z,3.00
2022-12-25T18:18:01.449Z,2.97
2022-12-25T18:23:06.090Z,2.96
2022-12-25T18:28:11.567Z,2.90
2022-12-25T18:33:16.938Z,2.89
2022-12-25T18:38:22.483Z,2.90
2022-12-25T18:43:54.196Z,2.91
2022-12-25T18:48:52.400Z,2.89
2022-12-25T18:53:58.567Z,2.88
2022-12-25T18:59:02.796Z,2.94
2022-12-25T19:04:09.171Z,2.96
2022-12-25T19:09:14.367Z,2.96
2022-12-25T19:14:19.893Z,2.94
2022-12-25T19:19:27.378Z,2.97
2022-12-25T19:24:34.166Z,3.00
2022-12-25T19:29:38.534Z,3.01
2022-12-25T19:34:43.487Z,3.05
2022-12-25T19:39:48.125Z,3.09
2022-12-25T19:44:51.838Z,3.15
2022-12-25T19:49:58.406Z,3.26
2022-12-25T19:55:09.259Z,3.38
2022-12-25T20:00:15.554Z,3.42
2022-12-25T20:05:22.446Z,3.48
2022-12-25T20:10:26.709Z,3.51
2022-12-25T20:15:46.517Z,3.49
2022-12-25T20:21:14.535Z,3.46
2022-12-25T20:26:23.873Z,3.45
2022-12-25T20:31:34.466Z,3.42
2022-12-25T20:36:38.879Z,3.47
2022-12-25T20:41:45.501Z,3.48
2022-12-25T20:46:50.975Z,3.57
2022-12-25T20:51:59.800Z,3.61
2022-12-25T20:57:09.381Z,3.68
2022-12-25T21:02:34.969Z,3.70
2022-12-25T21:07:38.822Z,3.66
2022-12-25T21:12:43.007Z,3.69
2022-12-25T21:17:47.320Z,3.66
2022-12-25T21:22:52.721Z,3.69
2022-12-25T21:28:01.063Z,3.64
2022-12-25T21:33:25.172Z,3.60
2022-12-25T21:38:29.124Z,3.63
2022-12-25T21:43:34.752Z,3.63
2022-12-25T21:48:41.296Z,3.63
2022-12-25T21:53:46.010Z,3.64
2022-12-25T21:58:51.534Z,3.60
2022-12-25T22:03:57.475Z,3.59
2022-12-25T22:09:03.179Z,3.58
2022-12-25T22:14:50.511Z,3.58
2022-12-25T22:19:57.910Z,3.57
2022-12-25T22:25:04.878Z,3.59
2022-12-25T22:30:22.066Z,3.61
2022-12-25T22:35:27.585Z,3.59
2022-12-25T22:40:31.933Z,3.57
2022-12-25T22:45:37.500Z,3.63
2022-12-25T22:50:41.307Z,3.63
2022-12-25T22:55:50.778Z,3.67
2022-12-25T23:00:55.237Z,3.72
2022-12-25T23:05:59.198Z,3.75
2022-12-25T23:11:06.515Z,3.79
2022-12-25T23:16:15.856Z,3.86
2022-12-25T23:21:38.669Z,3.93
2022-12-25T23:26:43.522Z,4.02
2022-12-25T23:31:54.001Z,4.05
2022-12-25T23:36:58.532Z,4.07
2022-12-25T23:42:03.189Z,4.10
2022-12-25T23:47:06.923Z,4.09
2022-12-25T23:52:13.543Z,4.13
2022-12-25T23:57:17.219Z,4.22
